createdAt,value
2022-08-09T00:04:03.692Z,19.23
2022-08-09T00:09:17.938Z,19.15
2022-08-09T00:14:36.501Z,19.16
2022-08-09T00:19:41.202Z,19.06
2022-08-09T00:24:49.740Z,19.05
2022-08-09T00:30:16.782Z,19.02
2022-08-09T00:35:13.630Z,18.98
2022-08-09T00:40:17.432Z,18.97
2022-08-09T00:45:21.531Z,18.92
2022-08-09T00:50:24.772Z,18.86
2022-08-09T00:55:32.845Z,18.87
2022-08-09T01:00:52.700Z,18.80
2022-08-09T01:06:18.138Z,18.71
2022-08-09T01:11:30.649Z,18.69
2022-08-09T01:16:40.307Z,18.59
2022-08-09T01:22:05.676Z,18.47
2022-08-09T01:27:18.020Z,18.46
2022-08-09T01:32:29.983Z,18.42
2022-08-09T01:38:10.071Z,18.36
2022-08-09T01:43:06.746Z,18.34
2022-08-09T01:48:10.321Z,18.29
2022-08-09T01:53:20.092Z,18.30
2022-08-09T01:58:25.779Z,18.21
2022-08-09T02:03:33.642Z,18.25
2022-08-09T02:08:58.364Z,18.28
2022-08-09T02:14:07.387Z,18.28
2022-08-09T02:19:10.489Z,18.27
2022-08-09T02:24:26.495Z,18.24
2022-08-09T02:29:34.262Z,18.25
2022-08-09T02:34:41.670Z,18.24
2022-08-09T02:40:03.111Z,18.13
2022-08-09T02:45:16.980Z,18.09
2022-08-09T02:50:27.401Z,18.09
2022-08-09T02:55:39.393Z,18.01
2022-08-09T03:00:58.591Z,17.94
2022-08-09T03:06:02.799Z,17.92
2022-08-09T03:11:06.596Z,17.92
2022-08-09T03:16:19.216Z,17.93
2022-08-09T03:21:25.740Z,17.96
2022-08-09T03:26:32.124Z,17.97
2022-08-09T03:31:42.797Z,17.94
2022-08-09T03:36:59.757Z,17.92
2022-08-09T03:42:06.061Z,17.90
2022-08-09T03:47:08.562Z,17.85
2022-08-09T03:52:11.600Z,17.86
2022-08-09T03:57:20.235Z,17.92
2022-08-09T04:02:26.746Z,18.00
2022-08-09T04:07:47.140Z,18.02
2022-08-09T04:12:54.418Z,18.16
2022-08-09T04:17:57.546Z,18.26
2022-08-09T04:22:59.843Z,18.34
2022-08-09T04:28:03.531Z,18.28
2022-08-09T04:33:05.476Z,18.28
2022-08-09T04:38:09.450Z,18.22
2022-08-09T04:43:11.022Z,18.29
2022-08-09T04:48:15.464Z,18.57
2022-08-09T04:53:17.307Z,18.83
2022-08-09T04:58:18.917Z,19.07
2022-08-09T05:03:40.411Z,19.33
2022-08-09T05:08:44.028Z,19.65
2022-08-09T05:13:49.690Z,19.79
2022-08-09T05:18:57.923Z,19.98
2022-08-09T05:24:03.719Z,20.05
2022-08-09T05:29:05.743Z,20.09
2022-08-09T05:34:07.386Z,20.14
2022-08-09T05:39:29.076Z,20.22
2022-08-09T05:44:34.654Z,20.38
2022-08-09T05:50:24.042Z,20.42
2022-08-09T05:55:03.173Z,20.54
2022-08-09T06:00:09.787Z,20.56
2022-08-09T06:05:12.897Z,20.56
2022-08-09T06:10:17.999Z,20.68
2022-08-09T06:15:19.772Z,20.80
2022-08-09T06:20:21.499Z,20.89
2022-08-09T06:25:23.853Z,21.01
2022-08-09T06:30:25.656Z,21.16
2022-08-09T06:35:56.534Z,21.31
2022-08-09T06:40:50.105Z,21.26
2022-08-09T06:46:07.813Z,21.29
2022-08-09T06:51:14.833Z,21.41
2022-08-09T06:56:18.388Z,21.47
2022-08-09T07:01:24.018Z,21.52
2022-08-09T07:06:29.718Z,21.53
2022-08-09T07:11:45.603Z,21.56
2022-08-09T07:16:57.647Z,21.67
2022-08-09T07:22:00.591Z,21.69
2022-08-09T07:27:03.891Z,21.83
2022-08-09T07:32:12.795Z,21.89
2022-08-09T07:37:15.710Z,22.02
2022-08-09T07:42:17.994Z,22.13
2022-08-09T07:47:20.871Z,22.23
2022-08-09T07:52:22.797Z,22.35
2022-08-09T07:57:33.922Z,22.56
2022-08-09T08:02:42.268Z,22.73
2022-08-09T08:08:44.013Z,22.85
2022-08-09T08:13:06.110Z,23.07
2022-08-09T08:18:12.258Z,23.19
2022-08-09T08:23:17.943Z,23.25
2022-08-09T08:28:25.947Z,23.49
2022-08-09T08:33:52.964Z,23.76
2022-08-09T08:38:56.412Z,23.89
2022-08-09T08:44:02.492Z,24.12
2022-08-09T08:49:07.186Z,24.28
2022-08-09T08:54:20.631Z,24.35
2022-08-09T08:59:44.483Z,24.45
2022-08-09T09:04:52.668Z,24.82
2022-08-09T09:09:59.614Z,24.83
2022-08-09T09:15:06.311Z,25.01
2022-08-09T09:20:15.430Z,25.01
2022-08-09T09:26:01.879Z,25.03
2022-08-09T09:30:57.607Z,25.24
2022-08-09T09:36:19.913Z,25.43
2022-08-09T09:41:33.500Z,25.77
2022-08-09T09:46:51.737Z,26.18
2022-08-09T09:52:05.426Z,26.25
2022-08-09T09:58:04.102Z,26.24
2022-08-09T10:02:46.734Z,26.29
2022-08-09T10:08:01.013Z,26.03
2022-08-09T10:13:10.428Z,26.12
2022-08-09T10:18:12.743Z,26.18
2022-08-09T10:23:22.073Z,25.79
2022-08-09T10:28:24.376Z,25.94
2022-08-09T10:34:08.174Z,26.19
2022-08-09T10:38:57.038Z,26.36
2022-08-09T10:44:02.498Z,26.19
2022-08-09T10:49:16.940Z,25.98
2022-08-09T10:54:26.990Z,26.15
2022-08-09T10:59:31.228Z,26.25
2022-08-09T11:04:34.409Z,26.29
2022-08-09T11:09:47.647Z,26.36
2022-08-09T11:14:58.285Z,26.55
2022-08-09T11:20:17.945Z,26.26
2022-08-09T11:25:47.782Z,26.31
2022-08-09T11:30:49.217Z,26.46
2022-08-09T11:36:01.780Z,26.60
2022-08-09T11:41:13.662Z,26.55
2022-08-09T11:46:26.595Z,26.53
2022-08-09T11:53:03.222Z,26.33
2022-08-09T11:58:00.703Z,26.39
2022-08-09T12:03:40.964Z,26.57
2022-08-09T12:08:25.226Z,26.58
2022-08-09T12:14:07.756Z,26.67
2022-08-09T12:18:53.885Z,26.55
2022-08-09T12:24:08.755Z,26.52
2022-08-09T12:29:29.528Z,26.74
2022-08-09T12:34:37.703Z,26.86
2022-08-09T12:39:39.663Z,26.86
2022-08-09T12:44:42.286Z,26.67
2022-08-09T12:50:08.460Z,26.61
2022-08-09T12:56:15.669Z,26.69
2022-08-09T13:00:35.483Z,26.71
2022-08-09T13:05:52.497Z,26.69
2022-08-09T13:11:13.368Z,26.84
2022-08-09T13:16:40.630Z,26.85
2022-08-09T13:22:36.661Z,27.26
2022-08-09T13:27:39.611Z,27.40
2022-08-09T13:32:54.267Z,27.11
2022-08-09T13:37:55.957Z,26.90
2022-08-09T13:42:57.670Z,26.75
2022-08-09T13:48:00.649Z,26.71
2022-08-09T13:53:03.665Z,26.85
2022-08-09T13:58:05.288Z,26.92
2022-08-09T14:04:00.960Z,26.93
2022-08-09T14:08:35.571Z,26.78
2022-08-09T14:14:22.150Z,26.79
2022-08-09T14:18:59.393Z,26.73
2022-08-09T14:24:18.364Z,26.60
2022-08-09T14:30:15.240Z,26.43
2022-08-09T14:34:45.157Z,26.38
2022-08-09T14:39:48.574Z,26.38
2022-08-09T14:45:00.107Z,26.32
2022-08-09T14:50:03.257Z,26.01
2022-08-09T14:55:06.978Z,26.11
2022-08-09T15:00:10.523Z,26.04
2022-08-09T15:05:12.257Z,26.12
2022-08-09T15:10:19.839Z,26.28
2022-08-09T15:15:22.040Z,26.25
2022-08-09T15:22:00.915Z,26.30
2022-08-09T15:25:45.705Z,26.32
2022-08-09T15:30:58.791Z,26.15
2022-08-09T15:36:05.822Z,25.83
2022-08-09T15:41:09.764Z,25.82
2022-08-09T15:46:31.954Z,25.86
2022-08-09T15:52:02.339Z,25.87
2022-08-09T15:56:54.696Z,25.83
2022-08-09T16:01:57.146Z,25.77
2022-08-09T16:06:58.832Z,25.79
2022-08-09T16:12:04.050Z,25.66
2022-08-09T16:17:05.756Z,25.58
2022-08-09T16:22:07.404Z,25.58
2022-08-09T16:27:17.427Z,25.49
2022-08-09T16:32:35.113Z,25.41
2022-08-09T16:37:53.435Z,25.31
2022-08-09T16:42:59.354Z,25.22
2022-08-09T16:48:38.947Z,25.07
2022-08-09T16:53:34.251Z,25.08
2022-08-09T16:58:37.082Z,25.02
2022-08-09T17:03:41.731Z,24.96
2022-08-09T17:09:01.023Z,24.88
2022-08-09T17:14:05.522Z,24.82
2022-08-09T17:19:09.826Z,24.75
2022-08-09T17:24:27.807Z,24.72
2022-08-09T17:29:37.776Z,24.67
2022-08-09T17:35:01.415Z,24.61
2022-08-09T17:40:01.443Z,24.53
2022-08-09T17:45:06.469Z,24.46
2022-08-09T17:50:16.925Z,24.39
2022-08-09T17:55:47.258Z,24.32
2022-08-09T18:00:48.512Z,24.26
2022-08-09T18:05:53.234Z,24.16
2022-08-09T18:11:01.859Z,24.01
2022-08-09T18:16:08.659Z,23.97
2022-08-09T18:21:22.699Z,23.81
2022-08-09T18:26:25.654Z,23.65
2022-08-09T18:31:51.192Z,23.55
2022-08-09T18:36:49.529Z,23.44
2022-08-09T18:41:53.924Z,23.26
2022-08-09T18:47:08.369Z,23.12
2022-08-09T18:52:12.789Z,23.02
2022-08-09T18:57:15.580Z,22.92
2022-08-09T19:02:18.510Z,22.83
2022-08-09T19:07:20.764Z,22.74
2022-08-09T19:12:24.397Z,22.63
2022-08-09T19:17:31.164Z,22.53
2022-08-09T19:22:41.259Z,22.46
2022-08-09T19:27:55.966Z,22.39
2022-08-09T19:32:58.305Z,22.25
2022-08-09T19:38:00.614Z,22.15
2022-08-09T19:43:05.190Z,22.08
2022-08-09T19:48:12.069Z,21.98
2022-08-09T19:53:13.667Z,21.95
2022-08-09T19:58:16.601Z,21.88
2022-08-09T20:04:09.925Z,21.87
2022-08-09T20:08:40.672Z,21.81
2022-08-09T20:13:53.887Z,21.76
2022-08-09T20:19:41.981Z,21.69
2022-08-09T20:24:29.230Z,21.61
2022-08-09T20:29:37.502Z,21.53
2022-08-09T20:34:41.011Z,21.39
2022-08-09T20:40:15.014Z,21.33
2022-08-09T20:46:00.316Z,21.27
2022-08-09T20:50:47.602Z,21.20
2022-08-09T20:56:00.823Z,21.17
2022-08-09T21:01:32.343Z,21.05
2022-08-09T21:06:27.826Z,20.93
2022-08-09T21:16:55.053Z,20.78
2022-08-09T21:21:57.961Z,20.72
2022-08-09T21:26:59.894Z,20.61
2022-08-09T21:32:18.413Z,20.59
2022-08-09T21:37:21.180Z,20.61
2022-08-09T21:42:28.506Z,20.51
2022-08-09T21:47:30.518Z,20.43
2022-08-09T21:52:32.991Z,20.39
2022-08-09T21:57:38.997Z,20.34
2022-08-09T22:03:00.098Z,20.29
2022-08-09T22:08:01.809Z,20.27
2022-08-09T22:13:07.567Z,20.26
2022-08-09T22:18:13.128Z,20.27
2022-08-09T22:23:14.993Z,20.21
2022-08-09T22:28:29.578Z,20.13
2022-08-09T22:33:42.509Z,20.09
2022-08-09T22:38:50.900Z,20.00
2022-08-09T22:44:02.060Z,19.96
2022-08-09T22:49:10.352Z,19.89
2022-08-09T22:54:12.364Z,19.81
2022-08-09T22:59:56.835Z,19.77
2022-08-09T23:04:38.341Z,19.75
2022-08-09T23:09:40.549Z,19.75
2022-08-09T23:14:42.776Z,19.75
2022-08-09T23:20:06.033Z,19.67
2022-08-09T23:25:06.646Z,19.58
2022-08-09T23:30:08.524Z,19.47
2022-08-09T23:35:10.115Z,19.48
2022-08-09T23:40:12.284Z,19.46
2022-08-09T23:45:38.245Z,19.42
2022-08-09T23:50:35.582Z,19.44
2022-08-09T23:55:37.965Z,19.50
